Time;durP1;ratioP1;P1;durP2;ratioP2;P2;SDS_P1;SDS_P2;PMS_P1;PMS_P2;Temp;Humidity;BMP_temperature;BMP_pressure;BME280_temperature;BME280_humidity;BME280_pressure;Samples;Min_cycle;Max_cycle;Signal;HPM_P1;HPM_P2
2021/11/19 00:01:16;;;;;;;8.73;5.57;;;12.40;98.70;;;;;;8376827;28;20524;-78
2021/11/19 00:05:16;;;;;;;5.33;4.80;;;12.40;98.80;;;;;;8391025;28;20543;-78
2021/11/19 00:09:18;;;;;;;7.30;4.00;;;12.40;98.90;;;;;;8394026;28;20900;-77
2021/11/19 00:13:19;;;;;;;6.63;4.00;;;12.40;98.90;;;;;;8386614;28;20184;-78
2021/11/19 00:17:20;;;;;;;4.13;3.53;;;12.40;98.80;;;;;;8375683;28;20435;-78
2021/11/19 00:21:23;;;;;;;5.17;3.67;;;12.50;98.80;;;;;;8386729;28;20466;-78
2021/11/19 00:25:25;;;;;;;6.97;4.20;;;12.50;99.00;;;;;;8400357;28;20524;-78
2021/11/19 00:29:25;;;;;;;3.83;3.50;;;12.50;98.80;;;;;;8379737;28;20446;-78
2021/11/19 00:33:26;;;;;;;4.50;3.97;;;12.50;98.80;;;;;;8384662;28;20461;-78
2021/11/19 00:37:27;;;;;;;3.50;3.20;;;12.50;98.80;;;;;;8383799;28;20189;-78
2021/11/19 00:41:28;;;;;;;2.50;2.20;;;12.50;98.80;;;;;;8382441;28;20652;-78
2021/11/19 00:45:30;;;;;;;3.63;3.33;;;12.50;98.70;;;;;;8394280;28;20196;-78
2021/11/19 00:49:33;;;;;;;3.03;2.73;;;12.60;98.80;;;;;;8392960;28;20500;-77
2021/11/19 00:53:37;;;;;;;4.03;3.10;;;12.60;98.80;;;;;;8370411;28;20453;-78
2021/11/19 00:57:38;;;;;;;2.87;2.37;;;12.60;98.80;;;;;;8389344;28;20770;-78
2021/11/19 01:01:49;;;;;;;6.23;3.03;;;12.60;98.80;;;;;;8388944;28;20476;-78
2021/11/19 01:05:51;;;;;;;1.87;1.77;;;12.60;98.80;;;;;;8394692;28;20474;-80
2021/11/19 01:09:56;;;;;;;4.77;2.00;;;12.60;98.80;;;;;;8378323;28;20442;-77
2021/11/19 01:13:59;;;;;;;2.87;2.70;;;12.60;98.80;;;;;;8364255;28;20440;-77
2021/11/19 01:18:11;;;;;;;3.13;2.50;;;12.60;98.80;;;;;;8388740;28;20450;-77
2021/11/19 01:22:20;;;;;;;2.13;2.00;;;12.60;98.80;;;;;;8369245;28;20879;-78
2021/11/19 01:26:24;;;;;;;3.17;2.40;;;12.60;98.80;;;;;;8363305;28;20439;-78
2021/11/19 01:30:35;;;;;;;3.07;2.43;;;12.60;98.80;;;;;;8366528;28;20449;-78
2021/11/19 01:34:38;;;;;;;2.00;1.90;;;12.60;98.70;;;;;;8380280;28;20431;-79
2021/11/19 01:38:41;;;;;;;3.87;2.57;;;12.70;98.70;;;;;;8371667;28;20464;-78
2021/11/19 01:42:48;;;;;;;2.10;2.00;;;12.70;98.70;;;;;;8389576;28;20462;-78
2021/11/19 01:46:52;;;;;;;1.80;1.60;;;12.70;98.70;;;;;;8394168;28;20456;-77
2021/11/19 01:51:24;;;;;;;2.70;2.50;;;12.70;98.70;;;;;;8404460;28;20441;-78
2021/11/19 01:55:29;;;;;;;2.53;2.30;;;12.70;98.70;;;;;;8401070;28;20554;-78
2021/11/19 01:59:48;;;;;;;2.63;2.40;;;12.70;98.70;;;;;;8378074;28;20539;-77
2021/11/19 02:03:54;;;;;;;3.80;3.00;;;12.70;98.70;;;;;;8365741;28;20478;-77
2021/11/19 02:07:59;;;;;;;3.37;3.07;;;12.70;98.80;;;;;;8379421;28;20437;-77
2021/11/19 02:12:37;;;;;;;3.47;2.57;;;12.70;98.80;;;;;;8385542;28;20453;-78
2021/11/19 02:16:53;;;;;;;3.23;2.93;;;12.70;98.90;;;;;;8372974;28;20447;-78
2021/11/19 02:20:58;;;;;;;3.03;2.70;;;12.70;98.90;;;;;;8386888;28;20554;-78
2021/11/19 02:25:08;;;;;;;3.07;2.77;;;12.70;98.90;;;;;;8365803;28;21254;-77
2021/11/19 02:29:10;;;;;;;4.00;3.17;;;12.70;98.90;;;;;;8388287;28;20449;-78
2021/11/19 02:33:12;;;;;;;3.70;3.40;;;12.70;98.90;;;;;;8387482;28;20793;-78
2021/11/19 02:37:32;;;;;;;5.10;3.63;;;12.70;98.90;;;;;;8373460;28;20465;-77
2021/11/19 02:41:36;;;;;;;6.40;3.93;;;12.70;99.00;;;;;;8388392;28;20541;-78
2021/11/19 02:45:41;;;;;;;3.13;2.83;;;12.60;99.00;;;;;;8392677;28;20445;-77
2021/11/19 02:49:43;;;;;;;3.50;2.93;;;12.60;99.00;;;;;;8379878;28;20465;-77
2021/11/19 02:53:45;;;;;;;4.07;2.90;;;12.60;99.10;;;;;;8388426;28;20473;-78
2021/11/19 02:57:47;;;;;;;4.37;2.50;;;12.60;99.10;;;;;;8376064;28;20439;-78
2021/11/19 03:01:57;;;;;;;2.37;2.27;;;12.60;99.10;;;;;;8380771;28;20533;-78
2021/11/19 03:05:59;;;;;;;3.60;2.20;;;12.60;99.10;;;;;;8393041;28;21040;-78
2021/11/19 03:10:05;;;;;;;2.80;2.60;;;12.60;99.10;;;;;;8394532;28;20459;-78
2021/11/19 03:14:10;;;;;;;8.33;3.80;;;12.60;99.10;;;;;;8396601;28;20435;-77
2021/11/19 03:18:14;;;;;;;3.93;2.80;;;12.60;99.10;;;;;;8394652;28;20449;-78
2021/11/19 03:22:19;;;;;;;3.47;2.60;;;12.60;99.30;;;;;;8385529;28;20442;-78
2021/11/19 03:26:19;;;;;;;4.27;2.53;;;12.60;99.10;;;;;;8395536;28;20430;-78
2021/11/19 03:30:23;;;;;;;3.43;2.30;;;12.50;99.10;;;;;;8391207;28;20458;-78
2021/11/19 03:34:24;;;;;;;4.57;2.30;;;12.50;99.10;;;;;;8396990;28;20266;-78
2021/11/19 03:38:28;;;;;;;3.90;2.10;;;12.50;99.30;;;;;;8374986;28;20440;-78
2021/11/19 03:42:29;;;;;;;2.80;2.40;;;12.50;99.10;;;;;;8392642;28;20171;-78
2021/11/19 03:46:35;;;;;;;7.10;3.03;;;12.50;99.10;;;;;;8393640;28;20938;-78
2021/11/19 03:50:41;;;;;;;3.37;2.40;;;12.50;99.10;;;;;;8374053;28;20616;-78
2021/11/19 03:54:46;;;;;;;2.30;2.10;;;12.50;99.00;;;;;;8399859;28;20447;-78
2021/11/19 03:58:47;;;;;;;2.30;2.00;;;12.60;99.10;;;;;;8390396;28;20467;-79
2021/11/19 04:02:48;;;;;;;3.03;2.27;;;12.50;99.00;;;;;;8393194;28;20457;-79
2021/11/19 04:06:49;;;;;;;3.50;2.67;;;12.50;99.00;;;;;;8409382;28;20466;-78
2021/11/19 04:10:51;;;;;;;3.37;2.10;;;12.50;99.00;;;;;;8384613;28;20194;-79
2021/11/19 04:14:52;;;;;;;2.00;1.90;;;12.50;99.00;;;;;;8401326;28;20894;-78
2021/11/19 04:18:53;;;;;;;2.53;1.90;;;12.50;99.00;;;;;;8405730;28;20471;-79
2021/11/19 04:22:55;;;;;;;1.80;1.70;;;12.50;99.10;;;;;;8422775;28;20474;-79
2021/11/19 04:26:55;;;;;;;2.13;1.93;;;12.50;99.10;;;;;;8379147;28;20474;-78
2021/11/19 04:30:57;;;;;;;3.40;1.40;;;12.50;99.10;;;;;;8375240;28;20443;-79
2021/11/19 04:34:58;;;;;;;1.93;1.83;;;12.50;99.10;;;;;;8374585;28;20173;-78
2021/11/19 04:38:59;;;;;;;1.53;1.43;;;12.50;99.10;;;;;;8375097;28;20873;-78
2021/11/19 04:43:00;;;;;;;2.90;1.23;;;12.50;99.40;;;;;;8391246;28;20206;-78
2021/11/19 04:47:01;;;;;;;1.63;0.97;;;12.60;99.20;;;;;;8369343;28;20192;-77
2021/11/19 04:51:12;;;;;;;1.20;1.20;;;12.60;99.20;;;;;;8385296;28;20437;-77
2021/11/19 04:55:14;;;;;;;1.07;0.87;;;12.60;99.20;;;;;;8388076;28;20461;-77
2021/11/19 04:59:16;;;;;;;3.20;1.00;;;12.60;99.20;;;;;;8374130;28;20562;-77
2021/11/19 05:03:17;;;;;;;1.73;1.63;;;12.60;99.20;;;;;;8389132;28;20482;-77
2021/11/19 05:07:18;;;;;;;1.97;1.57;;;12.60;99.20;;;;;;8384186;28;20448;-78
2021/11/19 05:11:25;;;;;;;1.30;1.20;;;12.60;99.10;;;;;;8385534;28;20776;-77
2021/11/19 05:15:28;;;;;;;1.20;1.10;;;12.70;99.10;;;;;;8384627;28;20199;-78
2021/11/19 05:19:29;;;;;;;1.03;0.97;;;12.60;99.00;;;;;;8402303;28;20534;-77
2021/11/19 05:23:33;;;;;;;2.13;1.53;;;12.70;99.10;;;;;;8390116;28;20452;-79
2021/11/19 05:27:33;;;;;;;1.57;1.47;;;12.70;99.10;;;;;;8392150;28;20442;-78
2021/11/19 05:31:35;;;;;;;1.13;1.00;;;12.70;99.10;;;;;;8407281;28;20978;-79
2021/11/19 05:35:36;;;;;;;6.87;2.30;;;12.70;99.10;;;;;;8383825;28;20190;-79
2021/11/19 05:39:37;;;;;;;2.67;2.00;;;12.70;99.10;;;;;;8383409;28;20460;-78
2021/11/19 05:43:40;;;;;;;1.40;1.10;;;12.70;99.20;;;;;;8385651;28;20185;-78
2021/11/19 05:47:41;;;;;;;2.90;1.17;;;12.70;99.20;;;;;;8370480;28;20177;-78
2021/11/19 05:51:42;;;;;;;2.60;1.40;;;12.80;99.30;;;;;;8391054;28;20946;-77
2021/11/19 05:55:45;;;;;;;1.23;1.13;;;12.80;99.30;;;;;;8396051;28;20177;-78
2021/11/19 05:59:46;;;;;;;1.67;1.47;;;12.80;99.40;;;;;;8398970;28;20484;-79
2021/11/19 06:03:48;;;;;;;1.33;1.20;;;12.80;99.40;;;;;;8416191;28;20504;-79
2021/11/19 06:07:49;;;;;;;2.23;1.53;;;12.80;99.50;;;;;;8401559;28;20166;-79
2021/11/19 06:11:52;;;;;;;2.80;1.90;;;12.80;99.60;;;;;;8393443;28;20468;-78
2021/11/19 06:16:04;;;;;;;1.63;1.47;;;12.80;99.60;;;;;;8405595;28;20443;-78
2021/11/19 06:20:21;;;;;;;1.83;1.67;;;12.80;99.70;;;;;;8379817;28;20483;-78
2021/11/19 06:24:28;;;;;;;2.20;1.60;;;12.80;99.70;;;;;;8370439;28;20443;-77
2021/11/19 06:28:46;;;;;;;1.60;1.37;;;12.80;99.70;;;;;;8389978;28;20861;-78
2021/11/19 06:32:47;;;;;;;1.43;1.33;;;12.80;99.70;;;;;;8376858;28;20443;-77
2021/11/19 06:36:48;;;;;;;4.00;1.47;;;12.80;99.80;;;;;;8380603;28;20454;-77
2021/11/19 06:40:49;;;;;;;1.60;1.47;;;12.80;99.80;;;;;;8389584;28;20472;-76
2021/11/19 06:44:50;;;;;;;1.60;1.47;;;12.80;99.80;;;;;;8372606;28;21046;-78
2021/11/19 06:48:52;;;;;;;2.77;1.63;;;12.80;99.90;;;;;;8371610;28;20203;-77
2021/11/19 06:52:52;;;;;;;1.33;1.23;;;12.80;99.90;;;;;;8364240;28;20181;-77
2021/11/19 06:56:54;;;;;;;1.73;1.50;;;12.80;99.90;;;;;;8366249;28;20461;-77
2021/11/19 07:00:56;;;;;;;1.87;1.50;;;12.80;99.90;;;;;;8382558;28;20217;-78
2021/11/19 07:04:56;;;;;;;1.83;1.73;;;12.80;99.90;;;;;;8370174;28;20476;-77
2021/11/19 07:08:58;;;;;;;1.13;1.00;;;12.80;99.90;;;;;;8385557;28;20451;-76
2021/11/19 07:12:59;;;;;;;2.30;1.97;;;12.80;99.90;;;;;;8367369;28;20196;-77
2021/11/19 07:17:04;;;;;;;1.73;1.20;;;12.80;99.90;;;;;;8363710;28;20438;-79
2021/11/19 07:21:04;;;;;;;1.13;1.00;;;12.80;99.90;;;;;;8372478;28;20258;-78
2021/11/19 07:25:07;;;;;;;0.80;0.80;;;12.80;99.90;;;;;;8380492;28;20447;-80
2021/11/19 07:29:08;;;;;;;2.00;1.10;;;12.90;99.90;;;;;;8387024;28;20192;-78
2021/11/19 07:33:09;;;;;;;1.10;1.00;;;12.90;99.90;;;;;;8400453;28;20453;-77
2021/11/19 07:37:11;;;;;;;0.83;0.80;;;12.90;99.90;;;;;;8398697;28;20200;-80
2021/11/19 07:41:14;;;;;;;1.10;1.00;;;12.90;99.90;;;;;;8397128;28;20462;-79
2021/11/19 07:45:17;;;;;;;1.33;0.90;;;12.90;99.90;;;;;;8406355;28;20502;-78
2021/11/19 07:49:18;;;;;;;0.67;0.67;;;12.90;99.90;;;;;;8379297;28;20461;-77
2021/11/19 07:53:20;;;;;;;0.70;0.70;;;13.00;99.90;;;;;;8394951;28;20439;-80
2021/11/19 07:57:20;;;;;;;1.63;1.00;;;13.00;99.90;;;;;;8393953;28;20185;-79
2021/11/19 08:01:21;;;;;;;0.80;0.80;;;13.10;99.90;;;;;;8415777;28;20486;-77
2021/11/19 08:05:22;;;;;;;1.27;1.17;;;13.10;99.90;;;;;;8405876;28;20228;-79
2021/11/19 08:09:23;;;;;;;1.20;1.10;;;13.20;99.80;;;;;;8409060;28;20172;-79
2021/11/19 08:13:24;;;;;;;1.33;0.90;;;13.20;99.70;;;;;;8388798;28;20428;-79
2021/11/19 08:17:30;;;;;;;1.13;0.80;;;13.30;99.60;;;;;;8395226;28;21422;-76
2021/11/19 08:21:31;;;;;;;1.30;1.20;;;13.30;99.40;;;;;;8401587;28;20563;-77
2021/11/19 08:25:32;;;;;;;1.60;1.50;;;13.30;99.30;;;;;;8387974;28;20437;-78
2021/11/19 08:29:35;;;;;;;1.53;1.43;;;13.40;99.30;;;;;;8394761;28;20225;-77
2021/11/19 08:33:36;;;;;;;3.90;1.83;;;13.50;99.40;;;;;;8383996;28;20464;-77
2021/11/19 08:37:38;;;;;;;2.13;2.03;;;13.50;99.10;;;;;;8368374;28;20471;-76
2021/11/19 08:41:40;;;;;;;1.17;1.07;;;13.60;98.90;;;;;;8375008;28;20495;-77
2021/11/19 08:45:42;;;;;;;1.27;0.90;;;13.70;98.80;;;;;;8372218;28;20437;-77
2021/11/19 08:49:43;;;;;;;0.83;0.83;;;13.70;98.70;;;;;;8386185;28;20447;-77
2021/11/19 08:53:45;;;;;;;1.37;1.27;;;13.80;98.60;;;;;;8382677;28;20513;-77
2021/11/19 08:57:46;;;;;;;2.73;0.90;;;13.80;98.50;;;;;;8392552;28;20444;-77
2021/11/19 09:01:50;;;;;;;2.73;1.17;;;13.80;98.40;;;;;;8386593;28;20488;-78
2021/11/19 09:05:51;;;;;;;0.87;0.87;;;13.80;98.40;;;;;;8356975;28;20481;-78
2021/11/19 09:09:53;;;;;;;0.97;0.97;;;13.90;98.40;;;;;;8328121;28;20452;-78
2021/11/19 09:13:56;;;;;;;2.90;1.23;;;13.90;98.40;;;;;;8359844;28;20187;-78
2021/11/19 09:18:06;;;;;;;1.40;1.27;;;13.90;98.40;;;;;;8332196;28;20435;-77
2021/11/19 09:22:22;;;;;;;2.30;1.10;;;13.90;98.40;;;;;;8328287;28;20565;-78
2021/11/19 09:26:34;;;;;;;1.27;1.17;;;14.00;98.40;;;;;;8329373;28;20461;-78
2021/11/19 09:30:39;;;;;;;3.40;1.47;;;14.10;98.20;;;;;;8326015;28;20450;-78
2021/11/19 09:34:44;;;;;;;0.97;0.97;;;14.10;98.20;;;;;;8323719;28;20437;-77
2021/11/19 09:38:47;;;;;;;2.07;1.70;;;14.10;98.00;;;;;;8332574;28;20477;-78
2021/11/19 09:43:05;;;;;;;1.20;1.10;;;14.20;98.10;;;;;;8333606;28;20545;-79
2021/11/19 09:47:45;;;;;;;1.53;1.27;;;14.20;98.10;;;;;;8325660;28;20443;-78
2021/11/19 09:52:23;;;;;;;0.87;0.87;;;14.20;98.10;;;;;;8333803;28;20454;-78
2021/11/19 09:56:43;;;;;;;2.50;1.67;;;14.20;98.20;;;;;;8325693;28;20913;-77
2021/11/19 10:00:52;;;;;;;1.50;1.40;;;14.20;98.20;;;;;;8353450;28;20529;-78
2021/11/19 10:04:59;;;;;;;1.37;1.27;;;14.30;98.20;;;;;;8334785;28;20578;-78
2021/11/19 10:09:08;;;;;;;1.80;1.70;;;14.30;98.20;;;;;;8338745;28;20497;-78
2021/11/19 10:13:52;;;;;;;1.90;1.10;;;14.40;98.30;;;;;;8353022;28;20439;-78
2021/11/19 10:18:13;;;;;;;1.27;1.17;;;14.40;98.30;;;;;;8317644;28;20454;-78
2021/11/19 10:22:29;;;;;;;1.40;1.30;;;14.50;98.40;;;;;;8325505;28;20521;-78
2021/11/19 10:26:34;;;;;;;0.97;0.97;;;14.50;98.10;;;;;;8327509;28;20570;-78
2021/11/19 10:30:48;;;;;;;0.90;0.90;;;14.60;98.20;;;;;;8327805;28;20476;-77
2021/11/19 10:35:03;;;;;;;1.17;1.17;;;14.70;98.00;;;;;;8326411;28;20494;-78
2021/11/19 10:39:27;;;;;;;1.63;1.20;;;14.70;97.80;;;;;;8321965;28;21059;-76
2021/11/19 10:43:57;;;;;;;1.27;1.03;;;14.70;97.80;;;;;;8316449;28;20760;-79
2021/11/19 10:48:07;;;;;;;0.90;0.90;;;14.80;97.70;;;;;;8324547;28;20454;-77
2021/11/19 10:52:29;;;;;;;1.20;1.10;;;14.90;97.70;;;;;;8314715;28;20478;-77
2021/11/19 10:56:50;;;;;;;0.80;0.80;;;15.00;97.50;;;;;;8324986;28;20450;-78
2021/11/19 11:01:00;;;;;;;1.33;1.00;;;15.10;97.20;;;;;;8325928;28;20489;-78
2021/11/19 11:05:09;;;;;;;1.23;0.87;;;15.20;97.30;;;;;;8363254;28;20477;-78
2021/11/19 11:09:18;;;;;;;0.93;0.80;;;15.20;97.00;;;;;;8367843;28;20544;-77
2021/11/19 11:13:56;;;;;;;0.70;0.70;;;15.20;97.10;;;;;;8390476;28;20522;-79
2021/11/19 11:18:14;;;;;;;1.03;0.80;;;15.20;97.30;;;;;;8395485;28;20495;-78
2021/11/19 11:22:20;;;;;;;3.13;0.90;;;15.20;97.40;;;;;;8390315;28;20507;-79
2021/11/19 11:26:41;;;;;;;0.70;0.70;;;15.20;97.40;;;;;;8384360;28;20448;-78
2021/11/19 11:30:54;;;;;;;1.23;1.13;;;15.20;97.60;;;;;;8384474;28;20445;-78
2021/11/19 11:35:00;;;;;;;0.90;0.80;;;15.10;97.70;;;;;;8410249;28;20448;-78
2021/11/19 11:39:18;;;;;;;1.60;0.87;;;15.00;98.10;;;;;;8391531;28;20460;-78
2021/11/19 11:43:26;;;;;;;0.80;0.80;;;15.00;98.40;;;;;;8397206;28;20441;-77
2021/11/19 11:47:59;;;;;;;1.20;0.90;;;15.00;98.60;;;;;;8396814;28;21182;-77
2021/11/19 11:52:12;;;;;;;2.40;1.33;;;14.80;98.70;;;;;;8377533;28;20445;-78
2021/11/19 11:56:26;;;;;;;2.50;1.50;;;14.60;99.20;;;;;;8410642;28;20433;-78
2021/11/19 12:00:40;;;;;;;2.03;1.33;;;14.50;99.70;;;;;;8406657;28;20464;-77
2021/11/19 12:05:11;;;;;;;1.70;1.60;;;14.50;99.90;;;;;;8386403;28;20474;-78
2021/11/19 12:09:19;;;;;;;1.00;1.00;;;14.40;99.90;;;;;;8376790;28;20445;-78
2021/11/19 12:13:33;;;;;;;3.93;1.40;;;14.40;99.90;;;;;;8396732;28;20497;-78
2021/11/19 12:17:49;;;;;;;1.47;1.20;;;14.40;99.90;;;;;;8375896;28;20448;-77
2021/11/19 12:22:16;;;;;;;1.90;1.30;;;14.50;99.90;;;;;;8375423;28;20477;-78
2021/11/19 12:26:32;;;;;;;1.03;1.00;;;14.60;99.90;;;;;;8380935;28;20468;-77
2021/11/19 12:30:39;;;;;;;1.27;0.93;;;14.60;99.60;;;;;;8375897;28;20457;-77
2021/11/19 12:34:49;;;;;;;1.37;0.83;;;14.70;99.60;;;;;;8388078;28;20456;-77
2021/11/19 12:38:54;;;;;;;1.10;1.00;;;14.80;99.40;;;;;;8382255;28;20479;-77
2021/11/19 12:42:58;;;;;;;0.87;0.80;;;14.80;99.30;;;;;;8367978;28;20444;-79
2021/11/19 12:47:08;;;;;;;1.50;1.40;;;14.90;99.20;;;;;;8403311;28;20439;-77
2021/11/19 12:51:35;;;;;;;2.50;1.67;;;14.90;99.10;;;;;;8365711;28;21041;-78
2021/11/19 12:56:02;;;;;;;1.50;1.40;;;15.00;98.80;;;;;;8383560;28;20434;-77
2021/11/19 13:00:04;;;;;;;1.50;1.40;;;15.00;98.60;;;;;;8385136;28;20479;-78
2021/11/19 13:04:20;;;;;;;1.80;1.70;;;15.10;98.30;;;;;;8379318;28;20839;-79
2021/11/19 13:08:42;;;;;;;1.83;1.73;;;15.20;98.10;;;;;;8380211;28;20861;-78
2021/11/19 13:13:03;;;;;;;2.70;1.53;;;15.20;97.80;;;;;;8384542;28;20436;-77
2021/11/19 13:17:14;;;;;;;1.10;1.00;;;15.30;97.70;;;;;;8381475;28;20447;-77
2021/11/19 13:21:33;;;;;;;1.90;1.80;;;15.30;97.30;;;;;;8390263;28;20480;-76
2021/11/19 13:25:34;;;;;;;1.20;1.10;;;15.40;97.20;;;;;;8360939;28;20544;-76
2021/11/19 13:29:41;;;;;;;1.57;1.47;;;15.40;97.10;;;;;;8391739;28;20468;-79
2021/11/19 13:34:05;;;;;;;1.60;1.27;;;15.50;96.80;;;;;;8388867;28;20178;-77
2021/11/19 13:38:13;;;;;;;1.10;1.10;;;15.50;96.80;;;;;;8357663;28;20801;-77
2021/11/19 13:42:13;;;;;;;1.53;1.43;;;15.40;96.90;;;;;;8394158;28;20601;-76
2021/11/19 13:46:51;;;;;;;2.67;1.70;;;15.40;96.80;;;;;;8368807;28;20441;-76
2021/11/19 13:50:54;;;;;;;2.10;1.93;;;15.40;96.80;;;;;;8351104;28;20680;-76
2021/11/19 13:55:20;;;;;;;2.40;2.20;;;15.40;96.80;;;;;;8388704;28;20448;-77
2021/11/19 13:59:38;;;;;;;2.70;2.20;;;15.40;96.90;;;;;;8371931;28;20488;-77
2021/11/19 14:03:40;;;;;;;3.67;2.50;;;15.40;96.50;;;;;;8376134;28;20559;-77
2021/11/19 14:07:51;;;;;;;7.03;2.30;;;15.40;96.80;;;;;;8363464;28;20495;-78
2021/11/19 14:11:58;;;;;;;3.43;2.70;;;15.30;96.90;;;;;;8361370;28;20456;-77
2021/11/19 14:16:08;;;;;;;2.37;2.00;;;15.40;97.40;;;;;;8382305;28;20800;-78
2021/11/19 14:24:44;;;;;;;5.13;3.40;;;15.30;97.50;;;;;;8406241;28;20444;-78
2021/11/19 14:28:51;;;;;;;3.87;3.47;;;15.20;97.60;;;;;;8407914;28;20516;-78
2021/11/19 14:33:15;;;;;;;5.07;3.87;;;15.10;97.60;;;;;;8379196;28;20992;-77
2021/11/19 14:37:24;;;;;;;10.47;4.50;;;15.10;97.60;;;;;;8361791;28;20507;-77
2021/11/19 14:41:48;;;;;;;5.70;3.63;;;15.00;97.50;;;;;;8354412;28;21036;-76
2021/11/19 14:45:54;;;;;;;8.83;4.53;;;14.90;97.60;;;;;;8357349;28;20566;-78
2021/11/19 14:50:10;;;;;;;4.27;3.97;;;14.80;97.50;;;;;;8373041;28;20452;-77
2021/11/19 14:54:19;;;;;;;5.60;4.40;;;14.70;97.50;;;;;;8373193;28;20444;-78
2021/11/19 14:58:40;;;;;;;5.90;4.70;;;14.60;97.70;;;;;;8381261;28;20461;-78
2021/11/19 15:03:14;;;;;;;4.43;4.03;;;14.60;97.80;;;;;;8367311;28;20538;-76
2021/11/19 15:07:26;;;;;;;7.90;5.07;;;14.60;97.80;;;;;;8345887;28;21058;-77
2021/11/19 15:11:59;;;;;;;7.13;5.30;;;14.60;97.80;;;;;;8344779;28;20912;-76
2021/11/19 15:16:28;;;;;;;8.30;5.20;;;14.50;97.90;;;;;;8332285;28;21245;-75
2021/11/19 15:20:34;;;;;;;5.83;5.33;;;14.50;98.10;;;;;;8326113;28;21355;-77
2021/11/19 15:24:42;;;;;;;5.90;4.17;;;14.40;98.10;;;;;;8324874;28;20491;-77
2021/11/19 15:28:44;;;;;;;6.23;3.63;;;14.40;98.00;;;;;;8339943;28;20477;-77
2021/11/19 15:32:56;;;;;;;4.73;4.20;;;14.30;97.80;;;;;;8335673;28;20642;-78
2021/11/19 15:37:17;;;;;;;4.30;3.90;;;14.30;97.70;;;;;;8344546;28;20448;-77
2021/11/19 15:41:30;;;;;;;6.37;4.70;;;14.30;97.60;;;;;;8339229;28;20460;-77
2021/11/19 15:45:43;;;;;;;5.50;4.50;;;14.20;97.60;;;;;;8337529;28;20917;-77
2021/11/19 15:49:48;;;;;;;7.87;4.90;;;14.20;97.50;;;;;;8344617;28;20533;-77
2021/11/19 15:54:15;;;;;;;7.33;4.70;;;14.10;97.30;;;;;;8340084;28;20468;-78
2021/11/19 15:58:44;;;;;;;5.77;4.70;;;14.10;97.30;;;;;;8365817;28;20878;-77
2021/11/19 16:02:54;;;;;;;8.70;5.30;;;14.10;97.20;;;;;;8342046;28;20480;-78
2021/11/19 16:07:24;;;;;;;8.50;6.00;;;14.10;97.30;;;;;;8374341;28;20200;-77
2021/11/19 16:11:38;;;;;;;10.47;6.00;;;14.10;97.20;;;;;;8383974;28;20452;-77
2021/11/19 16:15:46;;;;;;;9.03;6.10;;;14.10;97.30;;;;;;8372277;28;20522;-78
2021/11/19 16:19:47;;;;;;;10.30;7.30;;;14.10;97.30;;;;;;8373482;28;20498;-77
2021/11/19 16:23:49;;;;;;;15.93;7.57;;;14.10;97.20;;;;;;8369691;28;20448;-77
2021/11/19 16:27:50;;;;;;;10.70;7.43;;;14.00;97.20;;;;;;8388363;28;20198;-77
2021/11/19 16:31:51;;;;;;;8.83;6.30;;;14.00;97.10;;;;;;8386643;28;20699;-76
2021/11/19 16:35:52;;;;;;;8.97;7.17;;;14.00;97.10;;;;;;8386585;28;20186;-78
2021/11/19 16:39:53;;;;;;;10.67;5.80;;;14.00;97.10;;;;;;8390843;28;20541;-78
2021/11/19 16:43:54;;;;;;;8.20;6.53;;;14.00;97.10;;;;;;8386887;28;20174;-79
2021/11/19 16:47:57;;;;;;;16.40;6.50;;;14.00;97.10;;;;;;8389688;28;20189;-79
2021/11/19 16:52:07;;;;;;;13.07;7.33;;;13.90;97.10;;;;;;8394170;28;20452;-78
2021/11/19 16:56:10;;;;;;;10.00;6.43;;;13.90;97.10;;;;;;8370252;28;20479;-77
2021/11/19 17:00:20;;;;;;;10.57;7.40;;;13.90;97.10;;;;;;8383274;28;20978;-77
2021/11/19 17:04:21;;;;;;;12.83;8.63;;;13.90;97.20;;;;;;8365694;28;20581;-77
2021/11/19 17:08:25;;;;;;;11.70;7.77;;;13.90;97.30;;;;;;8366445;28;20433;-78
2021/11/19 17:12:25;;;;;;;10.37;7.30;;;13.80;97.30;;;;;;8351643;28;20774;-78
2021/11/19 17:16:27;;;;;;;11.53;7.63;;;13.90;97.30;;;;;;8357912;28;20447;-77
2021/11/19 17:20:29;;;;;;;12.40;7.67;;;13.90;97.30;;;;;;8369828;28;20244;-77
2021/11/19 17:24:29;;;;;;;12.67;7.50;;;13.90;97.30;;;;;;8372152;28;20801;-76
2021/11/19 17:28:34;;;;;;;15.60;10.03;;;13.90;97.30;;;;;;8373806;28;20438;-76
2021/11/19 17:32:34;;;;;;;17.40;10.90;;;13.90;97.40;;;;;;8372536;28;20224;-77
2021/11/19 17:36:40;;;;;;;13.67;8.20;;;13.90;97.30;;;;;;8377085;28;20435;-79
2021/11/19 17:40:42;;;;;;;15.00;9.03;;;13.90;97.30;;;;;;8360209;28;20554;-78
2021/11/19 17:44:42;;;;;;;11.87;8.57;;;13.80;97.30;;;;;;8375226;28;20444;-77
2021/11/19 17:48:45;;;;;;;11.00;8.00;;;13.90;97.30;;;;;;8381179;28;20446;-79
2021/11/19 17:52:49;;;;;;;12.10;8.53;;;13.80;97.30;;;;;;8369250;28;20741;-77
2021/11/19 17:56:54;;;;;;;17.30;8.47;;;13.80;97.30;;;;;;8384804;28;20440;-79
2021/11/19 18:01:01;;;;;;;13.20;9.00;;;13.80;97.30;;;;;;8379644;28;20482;-79
2021/11/19 18:05:02;;;;;;;18.10;10.60;;;13.80;97.30;;;;;;8380934;28;20532;-78
2021/11/19 18:09:05;;;;;;;16.05;10.05;;;13.80;97.40;;;;;;8384513;28;20436;-77
2021/11/19 18:13:07;;;;;;;18.58;12.18;;;13.80;97.50;;;;;;8375531;28;20458;-77
2021/11/19 18:17:10;;;;;;;23.57;12.50;;;14.00;97.20;;;;;;8361710;28;20273;-77
2021/11/19 18:21:17;;;;;;;14.47;10.10;;;14.00;97.10;;;;;;8372868;28;20210;-77
2021/11/19 18:25:18;;;;;;;18.20;11.77;;;13.90;97.10;;;;;;8388559;28;20600;-78
2021/11/19 18:29:19;;;;;;;21.83;12.90;;;13.80;97.10;;;;;;8380521;28;20438;-79
2021/11/19 18:33:21;;;;;;;15.67;10.80;;;13.80;97.10;;;;;;8363830;28;20482;-78
2021/11/19 18:37:24;;;;;;;30.87;17.40;;;13.80;97.20;;;;;;8391982;28;20503;-78
2021/11/19 18:41:30;;;;;;;22.83;12.23;;;13.70;97.20;;;;;;8394228;28;20512;-78
2021/11/19 18:45:31;;;;;;;25.87;15.63;;;13.70;97.30;;;;;;8373267;28;20471;-79
2021/11/19 18:49:32;;;;;;;26.57;14.23;;;13.70;97.40;;;;;;8381547;28;20439;-79
2021/11/19 18:53:33;;;;;;;29.70;17.13;;;13.70;97.50;;;;;;8387042;28;20867;-79
2021/11/19 18:57:34;;;;;;;31.93;16.10;;;13.70;97.60;;;;;;8374401;28;20501;-78
2021/11/19 19:01:38;;;;;;;28.10;15.30;;;13.70;97.50;;;;;;8352639;28;20861;-79
2021/11/19 19:05:38;;;;;;;35.77;21.37;;;13.60;97.50;;;;;;8371068;28;21462;-79
2021/11/19 19:09:40;;;;;;;24.53;14.57;;;13.60;97.60;;;;;;8372627;28;20451;-78
2021/11/19 19:13:41;;;;;;;38.33;21.93;;;13.60;97.50;;;;;;8367636;28;20193;-78
2021/11/19 19:17:42;;;;;;;41.40;20.10;;;13.60;97.60;;;;;;8349744;28;20450;-77
2021/11/19 19:21:43;;;;;;;25.30;16.50;;;13.70;97.50;;;;;;8350398;28;22923;-78
2021/11/19 19:25:46;;;;;;;35.20;21.13;;;13.70;97.50;;;;;;8369332;28;20448;-78
2021/11/19 19:29:48;;;;;;;34.40;19.13;;;13.70;97.40;;;;;;8357219;28;20680;-79
2021/11/19 19:33:50;;;;;;;31.00;15.73;;;13.70;97.40;;;;;;8363036;28;20470;-79
2021/11/19 19:37:53;;;;;;;30.67;18.93;;;13.70;97.40;;;;;;8387461;28;20451;-79
2021/11/19 19:42:07;;;;;;;27.80;17.07;;;13.70;97.40;;;;;;8380909;28;21079;-79
2021/11/19 19:46:08;;;;;;;28.70;15.70;;;13.70;97.30;;;;;;8392132;28;20473;-78
2021/11/19 19:50:10;;;;;;;26.03;16.83;;;13.70;97.30;;;;;;8381535;28;20544;-78
2021/11/19 19:54:12;;;;;;;34.23;19.13;;;13.70;97.40;;;;;;8362670;28;20558;-79
2021/11/19 19:58:17;;;;;;;28.30;17.00;;;13.70;97.40;;;;;;8359266;28;20474;-79
2021/11/19 20:02:21;;;;;;;33.13;21.13;;;13.70;97.40;;;;;;8366093;28;20534;-79
2021/11/19 20:06:21;;;;;;;28.37;18.10;;;13.70;97.30;;;;;;8376989;28;20493;-78
2021/11/19 20:10:26;;;;;;;28.50;15.07;;;13.70;97.30;;;;;;8377883;28;20452;-78
2021/11/19 20:14:28;;;;;;;30.17;17.57;;;13.70;97.30;;;;;;8334037;28;20187;-78
2021/11/19 20:18:30;;;;;;;28.70;17.10;;;13.70;97.30;;;;;;8356941;28;20560;-78
2021/11/19 20:22:31;;;;;;;31.27;17.50;;;13.70;97.30;;;;;;8380988;28;20475;-77
2021/11/19 20:26:35;;;;;;;45.40;19.50;;;13.70;97.30;;;;;;8364646;28;20448;-79
2021/11/19 20:30:42;;;;;;;32.87;18.97;;;13.70;97.30;;;;;;8369369;28;20503;-77
2021/11/19 20:34:47;;;;;;;29.93;19.17;;;13.70;97.30;;;;;;8381699;28;20451;-78
2021/11/19 20:38:52;;;;;;;30.63;18.67;;;13.70;97.30;;;;;;8364893;28;20471;-79
2021/11/19 20:42:53;;;;;;;28.63;15.47;;;13.70;97.30;;;;;;8365371;28;20439;-78
2021/11/19 20:46:57;;;;;;;28.17;16.23;;;13.70;97.40;;;;;;8379669;28;20448;-79
2021/11/19 20:50:59;;;;;;;25.77;15.53;;;13.60;97.30;;;;;;8363599;28;20751;-78
2021/11/19 20:55:00;;;;;;;25.40;16.30;;;13.70;97.40;;;;;;8382054;28;20796;-78
2021/11/19 20:59:04;;;;;;;26.97;14.30;;;13.60;97.40;;;;;;8362806;28;20451;-80
2021/11/19 21:03:06;;;;;;;27.63;13.90;;;13.60;97.40;;;;;;8358108;28;20515;-78
2021/11/19 21:07:08;;;;;;;32.60;18.30;;;13.60;97.50;;;;;;8360349;28;20934;-79
2021/11/19 21:11:09;;;;;;;29.50;15.10;;;13.60;97.60;;;;;;8381206;28;20445;-78
2021/11/19 21:15:14;;;;;;;30.87;16.00;;;13.60;97.60;;;;;;8364035;28;20437;-79
2021/11/19 21:19:17;;;;;;;31.37;17.03;;;13.60;97.60;;;;;;8383272;28;20218;-79
2021/11/19 21:23:19;;;;;;;31.73;16.23;;;13.50;97.70;;;;;;8364775;28;20444;-79